sensor_id;sensor_type;location;lat;lon;timestamp;P1;durP1;ratioP1;P2;durP2;ratioP2
44694;SDS011;32845;59.422;17.930;2023-02-15T00:01:26;7.78;;;3.25;;
44694;SDS011;32845;59.422;17.930;2023-02-15T00:05:57;11.88;;;3.45;;
44694;SDS011;32845;59.422;17.930;2023-02-15T00:10:28;8.50;;;3.58;;
44694;SDS011;32845;59.422;17.930;2023-02-15T00:14:59;10.27;;;4.22;;
44694;SDS011;32845;59.422;17.930;2023-02-15T00:19:30;9.95;;;4.07;;
44694;SDS011;32845;59.422;17.930;2023-02-15T00:24:01;10.70;;;3.17;;
44694;SDS011;32845;59.422;17.930;2023-02-15T00:28:34;10.55;;;3.47;;
44694;SDS011;32845;59.422;17.930;2023-02-15T00:33:04;8.13;;;3.13;;
44694;SDS011;32845;59.422;17.930;2023-02-15T00:37:35;10.05;;;3.60;;
44694;SDS011;32845;59.422;17.930;2023-02-15T00:42:06;8.10;;;2.88;;
44694;SDS011;32845;59.422;17.930;2023-02-15T00:46:36;10.32;;;3.88;;
44694;SDS011;32845;59.422;17.930;2023-02-15T00:51:07;11.43;;;3.10;;
44694;SDS011;32845;59.422;17.930;2023-02-15T00:55:38;5.60;;;3.00;;
44694;SDS011;32845;59.422;17.930;2023-02-15T01:00:10;8.15;;;3.55;;
44694;SDS011;32845;59.422;17.930;2023-02-15T01:04:41;7.80;;;2.78;;
44694;SDS011;32845;59.422;17.930;2023-02-15T01:09:12;5.07;;;2.65;;
44694;SDS011;32845;59.422;17.930;2023-02-15T01:13:43;6.13;;;2.67;;
44694;SDS011;32845;59.422;17.930;2023-02-15T01:18:14;10.93;;;2.90;;
44694;SDS011;32845;59.422;17.930;2023-02-15T01:22:45;29.20;;;11.27;;
44694;SDS011;32845;59.422;17.930;2023-02-15T01:27:15;8.13;;;3.47;;
44694;SDS011;32845;59.422;17.930;2023-02-15T01:31:46;7.53;;;2.90;;
44694;SDS011;32845;59.422;17.930;2023-02-15T01:36:17;6.90;;;2.83;;
44694;SDS011;32845;59.422;17.930;2023-02-15T01:40:50;8.30;;;3.47;;
44694;SDS011;32845;59.422;17.930;2023-02-15T01:45:26;6.05;;;2.80;;
44694;SDS011;32845;59.422;17.930;2023-02-15T01:54:44;10.88;;;3.20;;
44694;SDS011;32845;59.422;17.930;2023-02-15T01:59:17;8.82;;;3.55;;
44694;SDS011;32845;59.422;17.930;2023-02-15T02:08:46;7.30;;;2.83;;
44694;SDS011;32845;59.422;17.930;2023-02-15T02:13:18;5.97;;;3.17;;
44694;SDS011;32845;59.422;17.930;2023-02-15T02:18:12;9.05;;;3.35;;
44694;SDS011;32845;59.422;17.930;2023-02-15T02:27:56;4.85;;;2.92;;
44694;SDS011;32845;59.422;17.930;2023-02-15T02:33:06;12.55;;;4.22;;
44694;SDS011;32845;59.422;17.930;2023-02-15T02:42:44;7.50;;;3.22;;
44694;SDS011;32845;59.422;17.930;2023-02-15T02:52:04;5.65;;;3.10;;
44694;SDS011;32845;59.422;17.930;2023-02-15T02:56:55;8.17;;;3.50;;
44694;SDS011;32845;59.422;17.930;2023-02-15T03:01:38;7.75;;;3.35;;
44694;SDS011;32845;59.422;17.930;2023-02-15T03:06:13;9.98;;;3.58;;
44694;SDS011;32845;59.422;17.930;2023-02-15T03:10:53;7.47;;;3.42;;
44694;SDS011;32845;59.422;17.930;2023-02-15T03:15:26;6.85;;;3.70;;
44694;SDS011;32845;59.422;17.930;2023-02-15T03:20:22;10.75;;;3.55;;
44694;SDS011;32845;59.422;17.930;2023-02-15T03:29:50;7.40;;;3.60;;
44694;SDS011;32845;59.422;17.930;2023-02-15T03:34:25;10.38;;;3.55;;
44694;SDS011;32845;59.422;17.930;2023-02-15T03:39:04;11.60;;;4.13;;
44694;SDS011;32845;59.422;17.930;2023-02-15T03:43:56;13.37;;;3.90;;
44694;SDS011;32845;59.422;17.930;2023-02-15T03:48:32;9.98;;;3.67;;
44694;SDS011;32845;59.422;17.930;2023-02-15T03:53:10;7.00;;;4.10;;
44694;SDS011;32845;59.422;17.930;2023-02-15T03:57:44;7.18;;;3.55;;
44694;SDS011;32845;59.422;17.930;2023-02-15T04:02:36;10.98;;;4.90;;
44694;SDS011;32845;59.422;17.930;2023-02-15T04:07:14;11.35;;;4.60;;
44694;SDS011;32845;59.422;17.930;2023-02-15T04:11:45;12.52;;;4.82;;
44694;SDS011;32845;59.422;17.930;2023-02-15T04:16:16;8.82;;;4.70;;
44694;SDS011;32845;59.422;17.930;2023-02-15T04:20:46;10.52;;;4.70;;
44694;SDS011;32845;59.422;17.930;2023-02-15T04:25:35;13.52;;;5.45;;
44694;SDS011;32845;59.422;17.930;2023-02-15T04:30:07;11.38;;;5.45;;
44694;SDS011;32845;59.422;17.930;2023-02-15T04:34:39;18.65;;;4.88;;
44694;SDS011;32845;59.422;17.930;2023-02-15T04:39:11;18.05;;;6.53;;
44694;SDS011;32845;59.422;17.930;2023-02-15T04:43:43;16.65;;;7.60;;
44694;SDS011;32845;59.422;17.930;2023-02-15T04:48:15;15.90;;;6.32;;
44694;SDS011;32845;59.422;17.930;2023-02-15T04:52:46;15.20;;;6.75;;
44694;SDS011;32845;59.422;17.930;2023-02-15T04:57:17;13.05;;;6.40;;
44694;SDS011;32845;59.422;17.930;2023-02-15T05:01:48;12.27;;;6.45;;
44694;SDS011;32845;59.422;17.930;2023-02-15T05:06:18;16.20;;;6.97;;
44694;SDS011;32845;59.422;17.930;2023-02-15T05:10:49;13.85;;;7.15;;
44694;SDS011;32845;59.422;17.930;2023-02-15T05:15:20;14.55;;;6.70;;
44694;SDS011;32845;59.422;17.930;2023-02-15T05:19:50;15.95;;;7.50;;
44694;SDS011;32845;59.422;17.930;2023-02-15T05:24:21;14.85;;;6.90;;
44694;SDS011;32845;59.422;17.930;2023-02-15T05:29:10;16.60;;;7.57;;
44694;SDS011;32845;59.422;17.930;2023-02-15T05:33:41;19.88;;;7.55;;
44694;SDS011;32845;59.422;17.930;2023-02-15T05:38:12;16.38;;;7.95;;
44694;SDS011;32845;59.422;17.930;2023-02-15T05:42:43;15.50;;;7.80;;
44694;SDS011;32845;59.422;17.930;2023-02-15T05:47:14;17.75;;;7.93;;
44694;SDS011;32845;59.422;17.930;2023-02-15T05:51:44;17.88;;;7.78;;
44694;SDS011;32845;59.422;17.930;2023-02-15T05:56:15;19.95;;;9.18;;
44694;SDS011;32845;59.422;17.930;2023-02-15T06:00:46;17.98;;;7.47;;
44694;SDS011;32845;59.422;17.930;2023-02-15T06:05:16;20.42;;;8.00;;
44694;SDS011;32845;59.422;17.930;2023-02-15T06:09:47;20.48;;;7.95;;
44694;SDS011;32845;59.422;17.930;2023-02-15T06:14:18;17.52;;;8.02;;
44694;SDS011;32845;59.422;17.930;2023-02-15T06:18:54;20.20;;;8.30;;
44694;SDS011;32845;59.422;17.930;2023-02-15T06:23:24;19.40;;;8.48;;
44694;SDS011;32845;59.422;17.930;2023-02-15T06:27:55;22.17;;;8.90;;
44694;SDS011;32845;59.422;17.930;2023-02-15T06:32:26;20.98;;;8.32;;
44694;SDS011;32845;59.422;17.930;2023-02-15T06:36:56;23.98;;;8.02;;
44694;SDS011;32845;59.422;17.930;2023-02-15T06:41:27;15.65;;;7.53;;
44694;SDS011;32845;59.422;17.930;2023-02-15T06:45:58;20.17;;;8.45;;
44694;SDS011;32845;59.422;17.930;2023-02-15T06:50:28;19.00;;;7.82;;
44694;SDS011;32845;59.422;17.930;2023-02-15T06:54:59;23.63;;;8.40;;
44694;SDS011;32845;59.422;17.930;2023-02-15T06:59:30;21.00;;;8.63;;
44694;SDS011;32845;59.422;17.930;2023-02-15T07:04:01;20.92;;;7.68;;
44694;SDS011;32845;59.422;17.930;2023-02-15T07:08:31;19.77;;;7.60;;
44694;SDS011;32845;59.422;17.930;2023-02-15T07:13:02;18.38;;;8.40;;
44694;SDS011;32845;59.422;17.930;2023-02-15T07:17:33;19.38;;;8.57;;
44694;SDS011;32845;59.422;17.930;2023-02-15T07:22:04;18.75;;;8.50;;
44694;SDS011;32845;59.422;17.930;2023-02-15T07:26:35;16.17;;;7.53;;
44694;SDS011;32845;59.422;17.930;2023-02-15T07:31:05;17.85;;;8.00;;
44694;SDS011;32845;59.422;17.930;2023-02-15T07:35:36;17.48;;;7.22;;
44694;SDS011;32845;59.422;17.930;2023-02-15T07:40:07;17.17;;;6.93;;
44694;SDS011;32845;59.422;17.930;2023-02-15T07:44:38;13.43;;;6.82;;
44694;SDS011;32845;59.422;17.930;2023-02-15T07:49:08;14.32;;;6.13;;
44694;SDS011;32845;59.422;17.930;2023-02-15T07:53:39;16.92;;;6.45;;
44694;SDS011;32845;59.422;17.930;2023-02-15T07:58:11;14.02;;;6.68;;
44694;SDS011;32845;59.422;17.930;2023-02-15T08:02:41;13.63;;;6.82;;
44694;SDS011;32845;59.422;17.930;2023-02-15T08:07:12;14.45;;;7.65;;
44694;SDS011;32845;59.422;17.930;2023-02-15T08:11:43;18.13;;;6.80;;
44694;SDS011;32845;59.422;17.930;2023-02-15T08:16:14;16.90;;;6.78;;
44694;SDS011;32845;59.422;17.930;2023-02-15T08:20:51;14.73;;;5.88;;
44694;SDS011;32845;59.422;17.930;2023-02-15T08:25:21;13.23;;;5.72;;
44694;SDS011;32845;59.422;17.930;2023-02-15T08:29:57;14.50;;;6.03;;
44694;SDS011;32845;59.422;17.930;2023-02-15T08:34:29;15.60;;;6.15;;
44694;SDS011;32845;59.422;17.930;2023-02-15T08:39:02;14.90;;;6.43;;
44694;SDS011;32845;59.422;17.930;2023-02-15T08:43:34;13.60;;;6.40;;
44694;SDS011;32845;59.422;17.930;2023-02-15T08:48:05;12.40;;;6.43;;
44694;SDS011;32845;59.422;17.930;2023-02-15T08:52:36;15.60;;;6.15;;
44694;SDS011;32845;59.422;17.930;2023-02-15T08:57:06;11.98;;;5.75;;
44694;SDS011;32845;59.422;17.930;2023-02-15T09:01:37;14.40;;;5.63;;
44694;SDS011;32845;59.422;17.930;2023-02-15T09:06:08;12.07;;;5.38;;
44694;SDS011;32845;59.422;17.930;2023-02-15T09:10:39;15.85;;;6.03;;
44694;SDS011;32845;59.422;17.930;2023-02-15T09:15:09;10.38;;;5.18;;
44694;SDS011;32845;59.422;17.930;2023-02-15T09:19:40;13.23;;;6.32;;
44694;SDS011;32845;59.422;17.930;2023-02-15T09:24:13;12.07;;;5.18;;
44694;SDS011;32845;59.422;17.930;2023-02-15T09:28:47;10.27;;;5.10;;
44694;SDS011;32845;59.422;17.930;2023-02-15T09:33:19;10.73;;;4.82;;
44694;SDS011;32845;59.422;17.930;2023-02-15T09:37:49;13.43;;;6.15;;
44694;SDS011;32845;59.422;17.930;2023-02-15T09:52:04;12.23;;;5.32;;
44694;SDS011;32845;59.422;17.930;2023-02-15T09:56:57;11.32;;;5.40;;
44694;SDS011;32845;59.422;17.930;2023-02-15T10:01:36;15.30;;;5.38;;
44694;SDS011;32845;59.422;17.930;2023-02-15T10:16:06;12.30;;;4.90;;
44694;SDS011;32845;59.422;17.930;2023-02-15T10:25:46;13.23;;;5.80;;
44694;SDS011;32845;59.422;17.930;2023-02-15T10:30:43;16.98;;;6.18;;
44694;SDS011;32845;59.422;17.930;2023-02-15T10:35:20;12.73;;;5.70;;
44694;SDS011;32845;59.422;17.930;2023-02-15T10:40:07;10.85;;;5.43;;
44694;SDS011;32845;59.422;17.930;2023-02-15T10:54:49;14.18;;;5.03;;
44694;SDS011;32845;59.422;17.930;2023-02-15T10:59:50;15.25;;;6.25;;
44694;SDS011;32845;59.422;17.930;2023-02-15T11:09:23;12.90;;;5.40;;
44694;SDS011;32845;59.422;17.930;2023-02-15T11:13:59;14.40;;;5.53;;
44694;SDS011;32845;59.422;17.930;2023-02-15T11:23:42;18.98;;;6.43;;
44694;SDS011;32845;59.422;17.930;2023-02-15T11:28:33;14.80;;;5.65;;
44694;SDS011;32845;59.422;17.930;2023-02-15T11:33:18;15.20;;;5.70;;
44694;SDS011;32845;59.422;17.930;2023-02-15T11:42:35;14.73;;;6.07;;
44694;SDS011;32845;59.422;17.930;2023-02-15T11:47:12;17.13;;;5.50;;
44694;SDS011;32845;59.422;17.930;2023-02-15T11:51:43;26.23;;;6.90;;
44694;SDS011;32845;59.422;17.930;2023-02-15T11:56:15;17.00;;;6.32;;
44694;SDS011;32845;59.422;17.930;2023-02-15T12:00:48;15.98;;;6.13;;
44694;SDS011;32845;59.422;17.930;2023-02-15T12:05:23;18.42;;;6.47;;
44694;SDS011;32845;59.422;17.930;2023-02-15T12:09:56;15.35;;;6.18;;
44694;SDS011;32845;59.422;17.930;2023-02-15T12:14:49;13.93;;;5.85;;
44694;SDS011;32845;59.422;17.930;2023-02-15T12:19:31;16.10;;;5.47;;
44694;SDS011;32845;59.422;17.930;2023-02-15T12:24:27;18.02;;;6.55;;
44694;SDS011;32845;59.422;17.930;2023-02-15T12:29:34;19.45;;;7.20;;
44694;SDS011;32845;59.422;17.930;2023-02-15T12:33:59;20.23;;;7.30;;
44694;SDS011;32845;59.422;17.930;2023-02-15T12:38:32;18.58;;;6.50;;
44694;SDS011;32845;59.422;17.930;2023-02-15T12:43:04;18.00;;;6.70;;
44694;SDS011;32845;59.422;17.930;2023-02-15T12:47:38;13.05;;;6.20;;
44694;SDS011;32845;59.422;17.930;2023-02-15T12:56:51;17.55;;;6.60;;
44694;SDS011;32845;59.422;17.930;2023-02-15T13:01:23;20.35;;;7.22;;
44694;SDS011;32845;59.422;17.930;2023-02-15T13:05:55;20.83;;;6.88;;
44694;SDS011;32845;59.422;17.930;2023-02-15T13:10:29;16.52;;;6.78;;
44694;SDS011;32845;59.422;17.930;2023-02-15T13:15:22;16.55;;;6.72;;
44694;SDS011;32845;59.422;17.930;2023-02-15T13:20:16;18.58;;;6.68;;
44694;SDS011;32845;59.422;17.930;2023-02-15T13:24:57;19.45;;;7.28;;
44694;SDS011;32845;59.422;17.930;2023-02-15T13:29:33;22.20;;;7.85;;
44694;SDS011;32845;59.422;17.930;2023-02-15T13:34:14;19.20;;;6.78;;
44694;SDS011;32845;59.422;17.930;2023-02-15T13:39:14;16.98;;;7.05;;
44694;SDS011;32845;59.422;17.930;2023-02-15T13:44:21;21.55;;;7.43;;
44694;SDS011;32845;59.422;17.930;2023-02-15T13:59:09;16.58;;;6.32;;
44694;SDS011;32845;59.422;17.930;2023-02-15T14:04:12;15.38;;;6.55;;
44694;SDS011;32845;59.422;17.930;2023-02-15T14:09:13;18.55;;;6.00;;
44694;SDS011;32845;59.422;17.930;2023-02-15T14:18:39;13.60;;;5.68;;
44694;SDS011;32845;59.422;17.930;2023-02-15T14:28:20;16.00;;;5.27;;
44694;SDS011;32845;59.422;17.930;2023-02-15T14:38:19;13.57;;;5.70;;
44694;SDS011;32845;59.422;17.930;2023-02-15T14:43:08;14.02;;;5.15;;
44694;SDS011;32845;59.422;17.930;2023-02-15T14:48:11;15.73;;;5.47;;
44694;SDS011;32845;59.422;17.930;2023-02-15T14:57:57;14.27;;;6.07;;
44694;SDS011;32845;59.422;17.930;2023-02-15T15:07:21;15.35;;;5.68;;
44694;SDS011;32845;59.422;17.930;2023-02-15T15:16:53;12.55;;;5.93;;
44694;SDS011;32845;59.422;17.930;2023-02-15T15:26:21;13.98;;;5.72;;
44694;SDS011;32845;59.422;17.930;2023-02-15T15:31:17;16.45;;;5.50;;
44694;SDS011;32845;59.422;17.930;2023-02-15T15:50:31;13.98;;;5.22;;
44694;SDS011;32845;59.422;17.930;2023-02-15T15:55:04;15.70;;;5.30;;
44694;SDS011;32845;59.422;17.930;2023-02-15T15:59:51;11.35;;;5.00;;
44694;SDS011;32845;59.422;17.930;2023-02-15T16:04:26;11.10;;;4.95;;
44694;SDS011;32845;59.422;17.930;2023-02-15T16:09:12;13.38;;;5.00;;
44694;SDS011;32845;59.422;17.930;2023-02-15T16:13:48;14.00;;;5.37;;
44694;SDS011;32845;59.422;17.930;2023-02-15T16:18:21;13.10;;;5.03;;
44694;SDS011;32845;59.422;17.930;2023-02-15T16:32:14;13.18;;;4.93;;
44694;SDS011;32845;59.422;17.930;2023-02-15T16:36:49;12.98;;;5.38;;
44694;SDS011;32845;59.422;17.930;2023-02-15T16:41:21;12.38;;;4.55;;
44694;SDS011;32845;59.422;17.930;2023-02-15T16:45:58;11.02;;;4.55;;
44694;SDS011;32845;59.422;17.930;2023-02-15T16:50:35;12.32;;;4.72;;
44694;SDS011;32845;59.422;17.930;2023-02-15T16:55:17;15.13;;;5.03;;
44694;SDS011;32845;59.422;17.930;2023-02-15T16:59:55;13.55;;;5.32;;
44694;SDS011;32845;59.422;17.930;2023-02-15T17:04:30;14.52;;;4.97;;
44694;SDS011;32845;59.422;17.930;2023-02-15T17:09:03;13.65;;;5.43;;
44694;SDS011;32845;59.422;17.930;2023-02-15T17:13:36;12.90;;;5.35;;
44694;SDS011;32845;59.422;17.930;2023-02-15T17:22:40;11.68;;;5.05;;
44694;SDS011;32845;59.422;17.930;2023-02-15T17:27:21;12.27;;;4.93;;
44694;SDS011;32845;59.422;17.930;2023-02-15T17:31:55;12.93;;;4.93;;
44694;SDS011;32845;59.422;17.930;2023-02-15T17:36:30;10.55;;;5.00;;
44694;SDS011;32845;59.422;17.930;2023-02-15T17:41:01;15.57;;;5.35;;
44694;SDS011;32845;59.422;17.930;2023-02-15T17:45:36;11.93;;;5.00;;
44694;SDS011;32845;59.422;17.930;2023-02-15T17:50:23;12.82;;;4.80;;
44694;SDS011;32845;59.422;17.930;2023-02-15T17:54:55;15.90;;;4.68;;
44694;SDS011;32845;59.422;17.930;2023-02-15T17:59:44;13.38;;;4.72;;
44694;SDS011;32845;59.422;17.930;2023-02-15T18:04:34;17.05;;;6.00;;
44694;SDS011;32845;59.422;17.930;2023-02-15T18:09:24;10.82;;;4.85;;
44694;SDS011;32845;59.422;17.930;2023-02-15T18:14:14;11.27;;;5.05;;
44694;SDS011;32845;59.422;17.930;2023-02-15T18:18:45;15.73;;;4.97;;
44694;SDS011;32845;59.422;17.930;2023-02-15T18:23:16;12.68;;;5.22;;
44694;SDS011;32845;59.422;17.930;2023-02-15T18:27:46;13.82;;;5.43;;
44694;SDS011;32845;59.422;17.930;2023-02-15T18:32:28;15.15;;;5.90;;
44694;SDS011;32845;59.422;17.930;2023-02-15T18:37:05;11.48;;;5.50;;
44694;SDS011;32845;59.422;17.930;2023-02-15T18:41:41;14.27;;;5.50;;
44694;SDS011;32845;59.422;17.930;2023-02-15T18:46:12;19.63;;;6.32;;
44694;SDS011;32845;59.422;17.930;2023-02-15T18:50:43;13.30;;;5.75;;
44694;SDS011;32845;59.422;17.930;2023-02-15T18:55:15;15.95;;;6.13;;
44694;SDS011;32845;59.422;17.930;2023-02-15T18:59:50;16.02;;;6.40;;
44694;SDS011;32845;59.422;17.930;2023-02-15T19:04:21;14.50;;;4.85;;
44694;SDS011;32845;59.422;17.930;2023-02-15T19:08:52;13.45;;;6.05;;
44694;SDS011;32845;59.422;17.930;2023-02-15T19:13:22;13.32;;;6.32;;
44694;SDS011;32845;59.422;17.930;2023-02-15T19:17:53;15.45;;;6.68;;
44694;SDS011;32845;59.422;17.930;2023-02-15T19:22:25;19.67;;;7.32;;
44694;SDS011;32845;59.422;17.930;2023-02-15T19:27:00;15.98;;;7.07;;
44694;SDS011;32845;59.422;17.930;2023-02-15T19:31:31;18.85;;;7.43;;
44694;SDS011;32845;59.422;17.930;2023-02-15T19:36:02;22.17;;;7.63;;
44694;SDS011;32845;59.422;17.930;2023-02-15T19:40:34;21.27;;;8.43;;
44694;SDS011;32845;59.422;17.930;2023-02-15T19:45:24;22.05;;;7.30;;
44694;SDS011;32845;59.422;17.930;2023-02-15T19:49:56;24.50;;;9.15;;
44694;SDS011;32845;59.422;17.930;2023-02-15T19:54:33;19.70;;;7.70;;
44694;SDS011;32845;59.422;17.930;2023-02-15T19:59:04;20.23;;;7.95;;
44694;SDS011;32845;59.422;17.930;2023-02-15T20:03:35;23.67;;;8.75;;
44694;SDS011;32845;59.422;17.930;2023-02-15T20:08:06;25.20;;;8.95;;
44694;SDS011;32845;59.422;17.930;2023-02-15T20:12:40;18.23;;;7.63;;
44694;SDS011;32845;59.422;17.930;2023-02-15T20:17:11;21.63;;;7.65;;
44694;SDS011;32845;59.422;17.930;2023-02-15T20:21:42;19.80;;;7.95;;
44694;SDS011;32845;59.422;17.930;2023-02-15T20:26:15;19.48;;;8.23;;
44694;SDS011;32845;59.422;17.930;2023-02-15T20:30:48;22.00;;;7.88;;
44694;SDS011;32845;59.422;17.930;2023-02-15T20:35:23;18.40;;;8.18;;
44694;SDS011;32845;59.422;17.930;2023-02-15T20:39:55;21.67;;;7.80;;
44694;SDS011;32845;59.422;17.930;2023-02-15T20:44:26;21.55;;;8.55;;
44694;SDS011;32845;59.422;17.930;2023-02-15T20:49:00;21.98;;;8.07;;
44694;SDS011;32845;59.422;17.930;2023-02-15T20:53:30;19.90;;;8.00;;
44694;SDS011;32845;59.422;17.930;2023-02-15T20:58:01;22.55;;;8.65;;
44694;SDS011;32845;59.422;17.930;2023-02-15T21:02:40;25.17;;;8.27;;
44694;SDS011;32845;59.422;17.930;2023-02-15T21:07:14;19.15;;;7.70;;
44694;SDS011;32845;59.422;17.930;2023-02-15T21:11:47;17.25;;;7.60;;
44694;SDS011;32845;59.422;17.930;2023-02-15T21:16:20;18.55;;;6.72;;
44694;SDS011;32845;59.422;17.930;2023-02-15T21:20:52;16.88;;;7.18;;
44694;SDS011;32845;59.422;17.930;2023-02-15T21:25:26;17.30;;;7.20;;
44694;SDS011;32845;59.422;17.930;2023-02-15T21:30:05;22.92;;;7.20;;
44694;SDS011;32845;59.422;17.930;2023-02-15T21:34:44;19.77;;;7.35;;
44694;SDS011;32845;59.422;17.930;2023-02-15T21:39:22;15.93;;;6.32;;
44694;SDS011;32845;59.422;17.930;2023-02-15T21:43:54;17.45;;;6.60;;
44694;SDS011;32845;59.422;17.930;2023-02-15T21:48:44;20.27;;;6.75;;
44694;SDS011;32845;59.422;17.930;2023-02-15T21:53:25;18.80;;;7.15;;
44694;SDS011;32845;59.422;17.930;2023-02-15T21:58:00;19.60;;;6.70;;
44694;SDS011;32845;59.422;17.930;2023-02-15T22:02:31;17.98;;;6.15;;
44694;SDS011;32845;59.422;17.930;2023-02-15T22:07:02;22.13;;;7.20;;
44694;SDS011;32845;59.422;17.930;2023-02-15T22:11:32;19.65;;;6.75;;
44694;SDS011;32845;59.422;17.930;2023-02-15T22:16:03;17.73;;;6.65;;
44694;SDS011;32845;59.422;17.930;2023-02-15T22:20:34;20.58;;;7.10;;
44694;SDS011;32845;59.422;17.930;2023-02-15T22:25:05;24.17;;;7.40;;
44694;SDS011;32845;59.422;17.930;2023-02-15T22:29:36;18.83;;;6.63;;
44694;SDS011;32845;59.422;17.930;2023-02-15T22:34:10;22.30;;;7.32;;
44694;SDS011;32845;59.422;17.930;2023-02-15T22:39:00;19.10;;;7.82;;
44694;SDS011;32845;59.422;17.930;2023-02-15T22:48:04;23.63;;;8.15;;
44694;SDS011;32845;59.422;17.930;2023-02-15T22:52:35;20.45;;;7.47;;
44694;SDS011;32845;59.422;17.930;2023-02-15T22:57:07;23.35;;;7.88;;
44694;SDS011;32845;59.422;17.930;2023-02-15T23:01:44;24.33;;;8.30;;
44694;SDS011;32845;59.422;17.930;2023-02-15T23:06:16;27.55;;;7.68;;
44694;SDS011;32845;59.422;17.930;2023-02-15T23:10:48;25.30;;;8.43;;
44694;SDS011;32845;59.422;17.930;2023-02-15T23:15:24;25.17;;;7.90;;
44694;SDS011;32845;59.422;17.930;2023-02-15T23:19:54;21.00;;;7.50;;
44694;SDS011;32845;59.422;17.930;2023-02-15T23:24:26;27.75;;;8.85;;
44694;SDS011;32845;59.422;17.930;2023-02-15T23:28:59;24.58;;;8.15;;
44694;SDS011;32845;59.422;17.930;2023-02-15T23:33:31;23.83;;;8.00;;
44694;SDS011;32845;59.422;17.930;2023-02-15T23:38:05;30.58;;;9.50;;
44694;SDS011;32845;59.422;17.930;2023-02-15T23:42:53;24.52;;;8.80;;
44694;SDS011;32845;59.422;17.930;2023-02-15T23:52:14;28.35;;;9.27;;
44694;SDS011;32845;59.422;17.930;2023-02-15T23:56:46;26.40;;;9.07;;
